createdAt,value
2023-03-16T00:01:49.893Z,68.74
2023-03-16T00:07:18.726Z,68.56
2023-03-16T00:12:46.333Z,68.67
2023-03-16T00:18:13.481Z,68.76
2023-03-16T00:23:40.588Z,68.71
2023-03-16T00:29:09.077Z,68.20
2023-03-16T00:34:36.314Z,69.21
2023-03-16T00:40:05.214Z,68.25
2023-03-16T00:45:33.480Z,68.23
2023-03-16T00:51:06.763Z,68.23
2023-03-16T00:56:36.601Z,67.75
2023-03-16T01:02:03.599Z,68.36
2023-03-16T01:07:30.748Z,68.05
2023-03-16T01:12:58.695Z,67.92
2023-03-16T01:18:29.601Z,67.43
2023-03-16T01:23:57.433Z,68.00
2023-03-16T01:29:27.427Z,67.78
2023-03-16T01:34:57.579Z,67.75
2023-03-16T01:40:24.802Z,68.13
2023-03-16T01:46:01.343Z,68.04
2023-03-16T01:51:55.182Z,68.20
2023-03-16T01:57:30.766Z,68.62
2023-03-16T02:03:20.443Z,69.15
2023-03-16T02:08:56.140Z,68.94
2023-03-16T02:14:26.002Z,68.42
2023-03-16T02:20:09.472Z,68.97
2023-03-16T02:26:04.571Z,68.34
2023-03-16T02:31:35.216Z,68.91
2023-03-16T02:37:06.032Z,69.00
2023-03-16T02:42:33.749Z,68.04
2023-03-16T02:48:05.787Z,67.57
2023-03-16T02:53:33.651Z,67.88
2023-03-16T02:59:02.574Z,67.91
2023-03-16T03:04:33.227Z,67.79
2023-03-16T03:10:03.329Z,67.45
2023-03-16T03:15:34.687Z,67.93
2023-03-16T03:21:07.553Z,68.21
2023-03-16T03:26:35.281Z,68.82
2023-03-16T03:32:05.664Z,68.64
2023-03-16T03:37:32.897Z,68.41
2023-03-16T03:43:02.009Z,68.53
2023-03-16T03:48:31.024Z,68.45
2023-03-16T03:53:59.572Z,68.81
2023-03-16T03:59:50.262Z,67.95
2023-03-16T04:05:22.110Z,68.35
2023-03-16T04:10:51.679Z,67.59
2023-03-16T04:16:22.234Z,67.46
2023-03-16T04:21:53.341Z,67.67
2023-03-16T04:27:21.464Z,68.07
2023-03-16T04:32:49.664Z,67.94
2023-03-16T04:38:20.418Z,68.37
2023-03-16T04:43:55.515Z,68.31
2023-03-16T04:49:25.082Z,68.60
2023-03-16T04:54:52.111Z,67.98
2023-03-16T05:00:45.755Z,67.70
2023-03-16T05:06:21.290Z,68.20
2023-03-16T05:11:49.082Z,68.36
2023-03-16T05:17:17.233Z,68.58
2023-03-16T05:22:46.652Z,67.85
2023-03-16T05:28:34.413Z,68.77
2023-03-16T05:34:04.073Z,67.33
2023-03-16T05:39:34.650Z,64.35
2023-03-16T05:45:02.101Z,60.87
2023-03-16T05:50:43.983Z,59.11
2023-03-16T05:56:13.380Z,55.28
2023-03-16T06:01:43.613Z,47.82
2023-03-16T06:07:14.826Z,43.06
2023-03-16T06:12:43.425Z,39.61
2023-03-16T06:18:11.214Z,35.89
2023-03-16T06:23:38.021Z,32.39
2023-03-16T06:29:07.600Z,30.23
2023-03-16T06:34:38.308Z,28.40
2023-03-16T06:40:08.015Z,26.50
2023-03-16T06:45:35.330Z,24.33
2023-03-16T06:51:03.589Z,22.80
2023-03-16T06:56:32.053Z,22.42
2023-03-16T07:01:59.441Z,21.83
2023-03-16T07:07:27.474Z,20.82
2023-03-16T07:12:55.595Z,20.12
2023-03-16T07:18:26.303Z,18.70
2023-03-16T07:23:56.038Z,18.40
2023-03-16T07:29:28.955Z,18.82
2023-03-16T07:34:59.308Z,19.00
2023-03-16T07:40:31.589Z,19.35
2023-03-16T07:46:07.091Z,19.40
2023-03-16T07:51:35.613Z,19.11
2023-03-16T07:57:03.913Z,18.40
2023-03-16T08:02:40.313Z,17.19
2023-03-16T08:08:09.909Z,17.12
2023-03-16T08:13:38.593Z,17.33
2023-03-16T08:19:05.964Z,17.41
2023-03-16T08:24:33.809Z,16.22
2023-03-16T08:30:05.338Z,15.87
2023-03-16T08:35:34.859Z,16.15
2023-03-16T08:41:02.989Z,16.19
2023-03-16T08:46:31.316Z,15.85
2023-03-16T08:52:00.966Z,17.34
2023-03-16T08:57:29.179Z,18.33
2023-03-16T09:02:56.895Z,18.13
2023-03-16T09:08:23.900Z,17.61
2023-03-16T09:13:53.045Z,17.37
2023-03-16T09:19:22.137Z,18.18
2023-03-16T09:24:50.452Z,17.67
2023-03-16T09:30:18.405Z,17.15
2023-03-16T09:35:46.436Z,17.11
2023-03-16T09:41:36.158Z,18.77
2023-03-16T09:47:06.558Z,18.69
2023-03-16T09:53:10.869Z,18.75
2023-03-16T09:58:38.586Z,18.19
2023-03-16T10:04:53.428Z,20.58
2023-03-16T10:10:38.449Z,20.20
2023-03-16T10:16:13.340Z,20.75
2023-03-16T10:21:43.781Z,20.10
2023-03-16T10:27:38.580Z,20.62
2023-03-16T10:33:27.204Z,21.90
2023-03-16T10:38:59.918Z,22.21
2023-03-16T10:44:30.153Z,22.07
2023-03-16T10:49:57.219Z,21.84
2023-03-16T10:55:30.565Z,20.76
2023-03-16T11:00:58.769Z,21.82
2023-03-16T11:06:31.038Z,22.30
2023-03-16T11:11:58.171Z,25.31
2023-03-16T11:17:45.122Z,24.54
2023-03-16T11:23:18.641Z,25.13
2023-03-16T11:28:51.894Z,25.52
2023-03-16T11:34:23.805Z,24.49
2023-03-16T11:40:15.823Z,25.08
2023-03-16T11:46:10.859Z,24.04
2023-03-16T11:51:44.521Z,24.42
2023-03-16T11:57:18.548Z,24.71
2023-03-16T12:03:11.206Z,24.03
2023-03-16T12:09:04.781Z,25.48
2023-03-16T12:14:42.875Z,26.39
2023-03-16T12:20:21.763Z,25.66
2023-03-16T12:25:51.573Z,26.59
2023-03-16T12:31:25.782Z,28.07
2023-03-16T12:36:53.300Z,26.91
2023-03-16T12:42:40.140Z,25.55
2023-03-16T12:48:25.328Z,23.90
2023-03-16T12:53:53.371Z,26.62
2023-03-16T12:59:23.516Z,27.23
2023-03-16T13:04:59.324Z,25.11
2023-03-16T13:10:27.108Z,24.30
2023-03-16T13:16:09.544Z,25.09
2023-03-16T13:21:39.658Z,25.39
2023-03-16T13:27:22.548Z,25.97
2023-03-16T13:32:53.485Z,26.12
2023-03-16T13:38:30.573Z,25.00
2023-03-16T13:43:57.593Z,26.43
2023-03-16T13:49:25.010Z,25.90
2023-03-16T13:54:53.566Z,25.19
2023-03-16T14:00:22.145Z,25.81
2023-03-16T14:05:50.238Z,26.14
2023-03-16T14:11:17.935Z,26.74
2023-03-16T14:16:45.984Z,25.68
2023-03-16T14:22:16.610Z,26.33
2023-03-16T14:27:47.387Z,26.14
2023-03-16T14:33:32.175Z,26.99
2023-03-16T14:39:11.607Z,27.22
2023-03-16T14:44:39.204Z,26.85
2023-03-16T14:50:17.045Z,26.50
2023-03-16T14:55:47.694Z,26.64
2023-03-16T15:01:20.102Z,27.29
2023-03-16T15:06:49.122Z,27.37
2023-03-16T15:12:20.216Z,27.60
2023-03-16T15:17:50.641Z,27.89
2023-03-16T15:23:18.233Z,28.55
2023-03-16T15:28:45.794Z,27.60
2023-03-16T15:34:13.009Z,27.97
2023-03-16T15:39:40.579Z,27.87
2023-03-16T15:45:19.030Z,28.70
2023-03-16T15:50:54.033Z,29.27
2023-03-16T15:56:30.169Z,29.34
2023-03-16T16:01:58.966Z,29.76
2023-03-16T16:07:27.685Z,29.88
2023-03-16T16:12:57.708Z,30.91
2023-03-16T16:18:36.803Z,30.74
2023-03-16T16:24:04.689Z,31.03
2023-03-16T16:29:34.070Z,31.40
2023-03-16T16:35:04.750Z,31.33
2023-03-16T16:40:38.269Z,32.51
2023-03-16T16:46:28.750Z,33.08
2023-03-16T16:51:57.713Z,34.03
2023-03-16T16:57:28.095Z,35.17
2023-03-16T17:02:58.710Z,38.61
2023-03-16T17:08:29.732Z,40.38
2023-03-16T17:14:03.844Z,39.91
2023-03-16T17:19:32.844Z,40.25
2023-03-16T17:25:02.739Z,40.33
2023-03-16T17:30:32.625Z,40.98
2023-03-16T17:41:55.462Z,41.76
2023-03-16T17:47:33.832Z,42.44
2023-03-16T17:53:08.374Z,43.18
2023-03-16T17:58:44.826Z,43.60
2023-03-16T18:04:21.904Z,42.89
2023-03-16T18:09:49.956Z,43.82
2023-03-16T18:15:25.065Z,44.07
2023-03-16T18:20:58.639Z,44.35
2023-03-16T18:26:29.804Z,45.30
2023-03-16T18:31:59.526Z,45.48
2023-03-16T18:37:33.878Z,46.86
2023-03-16T18:43:01.655Z,46.24
2023-03-16T18:48:36.365Z,46.24
2023-03-16T18:54:36.874Z,47.67
2023-03-16T19:00:09.383Z,50.57
2023-03-16T19:05:39.389Z,50.12
2023-03-16T19:11:10.935Z,51.40
2023-03-16T19:16:38.654Z,50.40
2023-03-16T19:22:14.015Z,49.91
2023-03-16T19:27:42.124Z,50.69
2023-03-16T19:33:23.081Z,51.32
2023-03-16T19:38:52.875Z,50.56
2023-03-16T19:44:26.783Z,50.37
2023-03-16T19:49:57.976Z,48.94
2023-03-16T19:55:34.107Z,47.87
2023-03-16T20:01:02.970Z,48.89
2023-03-16T20:06:33.395Z,48.61
2023-03-16T20:12:01.448Z,49.19
2023-03-16T20:17:29.873Z,49.01
2023-03-16T20:22:59.786Z,49.63
2023-03-16T20:28:36.692Z,49.98
2023-03-16T20:34:03.993Z,50.37
2023-03-16T20:39:32.024Z,51.32
2023-03-16T20:44:59.934Z,51.38
2023-03-16T20:50:31.346Z,51.63
2023-03-16T20:55:58.704Z,52.54
2023-03-16T21:01:27.046Z,52.17
2023-03-16T21:06:59.095Z,52.58
2023-03-16T21:12:36.357Z,52.28
2023-03-16T21:18:07.450Z,52.16
2023-03-16T21:23:34.901Z,52.89
2023-03-16T21:29:08.909Z,52.85
2023-03-16T21:34:36.625Z,52.83
2023-03-16T21:40:06.423Z,53.17
2023-03-16T21:45:33.936Z,53.59
2023-03-16T21:51:00.827Z,53.84
2023-03-16T21:56:27.714Z,54.37
2023-03-16T22:02:01.890Z,54.16
2023-03-16T22:07:29.722Z,54.76
2023-03-16T22:12:57.174Z,55.16
2023-03-16T22:18:30.489Z,55.68
2023-03-16T22:23:59.560Z,56.04
2023-03-16T22:29:33.644Z,55.42
2023-03-16T22:35:00.933Z,56.00
2023-03-16T22:40:31.815Z,56.16
2023-03-16T22:45:59.576Z,55.89
2023-03-16T22:51:32.060Z,56.16
2023-03-16T22:56:59.245Z,56.27
2023-03-16T23:02:28.004Z,55.46
2023-03-16T23:07:55.728Z,55.32
2023-03-16T23:13:25.516Z,55.58
2023-03-16T23:18:53.559Z,55.36
2023-03-16T23:24:22.310Z,55.27
2023-03-16T23:29:50.269Z,56.32
2023-03-16T23:35:30.071Z,55.81
2023-03-16T23:40:57.090Z,55.67
2023-03-16T23:46:26.423Z,55.79
2023-03-16T23:51:57.022Z,56.11
2023-03-16T23:57:24.496Z,56.59
